createdAt,value
2019-01-21T00:01:50.941Z,21.57
2019-01-21T00:04:16.935Z,21.57
2019-01-21T00:06:42.932Z,21.57
2019-01-21T00:09:08.987Z,21.56
2019-01-21T00:11:34.986Z,21.56
2019-01-21T00:14:00.979Z,21.56
2019-01-21T00:16:27.029Z,21.56
2019-01-21T00:18:53.024Z,21.56
2019-01-21T00:21:19.023Z,21.55
2019-01-21T00:23:45.052Z,21.55
2019-01-21T00:26:11.048Z,21.54
2019-01-21T00:28:37.049Z,21.54
2019-01-21T00:31:03.088Z,21.54
2019-01-21T00:33:29.079Z,21.54
2019-01-21T00:35:55.073Z,21.54
2019-01-21T00:38:21.125Z,21.53
2019-01-21T00:40:47.120Z,21.54
2019-01-21T00:43:13.114Z,21.53
2019-01-21T00:45:39.159Z,21.53
2019-01-21T00:48:05.157Z,21.52
2019-01-21T00:50:31.159Z,21.53
2019-01-21T00:52:57.191Z,21.52
2019-01-21T00:55:23.187Z,21.52
2019-01-21T00:57:49.178Z,21.52
2019-01-21T01:00:15.225Z,21.51
2019-01-21T01:02:41.222Z,21.51
2019-01-21T01:05:07.219Z,21.51
2019-01-21T01:07:33.270Z,21.51
2019-01-21T01:09:59.262Z,21.51
2019-01-21T01:12:25.258Z,21.50
2019-01-21T01:14:51.322Z,21.50
2019-01-21T01:17:17.325Z,21.50
2019-01-21T01:19:43.324Z,21.50
2019-01-21T01:22:09.372Z,21.50
2019-01-21T01:24:35.367Z,21.50
2019-01-21T01:27:01.371Z,21.50
2019-01-21T01:29:27.399Z,21.49
2019-01-21T01:31:53.395Z,21.49
2019-01-21T01:34:19.428Z,21.49
2019-01-21T01:36:45.463Z,21.47
2019-01-21T01:39:11.460Z,21.48
2019-01-21T01:41:37.464Z,21.48
2019-01-21T01:44:03.502Z,21.48
2019-01-21T01:46:29.503Z,21.48
2019-01-21T01:48:55.499Z,21.47
2019-01-21T01:51:21.566Z,21.47
2019-01-21T01:53:47.563Z,21.46
2019-01-21T01:56:13.564Z,21.46
2019-01-21T01:58:39.616Z,21.46
2019-01-21T02:01:05.614Z,21.46
2019-01-21T02:03:31.610Z,21.46
2019-01-21T02:05:57.646Z,21.46
2019-01-21T02:08:23.651Z,21.46
2019-01-21T02:10:49.635Z,21.45
2019-01-21T02:13:15.688Z,21.46
2019-01-21T02:15:41.684Z,21.45
2019-01-21T02:18:07.682Z,21.45
2019-01-21T02:20:33.727Z,21.45
2019-01-21T02:22:59.723Z,21.45
2019-01-21T02:25:25.723Z,21.45
2019-01-21T02:27:51.769Z,21.44
2019-01-21T02:30:17.768Z,21.44
2019-01-21T02:32:43.780Z,21.43
2019-01-21T02:35:09.823Z,21.44
2019-01-21T02:37:35.819Z,21.43
2019-01-21T02:40:01.817Z,21.43
2019-01-21T02:42:27.861Z,21.43
2019-01-21T02:44:53.857Z,21.43
2019-01-21T02:47:19.848Z,21.43
2019-01-21T02:49:45.895Z,21.42
2019-01-21T02:52:11.898Z,21.43
2019-01-21T02:54:37.883Z,21.42
2019-01-21T02:57:03.923Z,21.43
2019-01-21T02:59:29.915Z,21.42
2019-01-21T03:01:55.907Z,21.42
2019-01-21T03:04:21.946Z,21.42
2019-01-21T03:06:47.957Z,21.41
2019-01-21T03:09:13.955Z,21.42
2019-01-21T03:11:40.150Z,21.41
2019-01-21T03:14:06.148Z,21.41
2019-01-21T03:16:32.165Z,21.42
2019-01-21T03:18:58.198Z,21.41
2019-01-21T03:21:24.196Z,21.41
2019-01-21T03:23:50.188Z,21.41
2019-01-21T03:26:16.232Z,21.41
2019-01-21T03:28:42.228Z,21.40
2019-01-21T03:31:08.220Z,21.40
2019-01-21T03:33:34.262Z,21.40
2019-01-21T03:36:00.260Z,21.40
2019-01-21T03:38:26.270Z,21.41
2019-01-21T03:40:52.321Z,21.40
2019-01-21T03:43:18.314Z,21.40
2019-01-21T03:45:44.317Z,21.41
2019-01-21T03:48:16.546Z,21.41
2019-01-21T03:50:36.374Z,21.40
2019-01-21T03:53:02.364Z,21.39
2019-01-21T03:55:28.398Z,21.40
2019-01-21T03:57:54.391Z,21.40
2019-01-21T04:00:20.407Z,21.40
2019-01-21T04:02:46.451Z,21.40
2019-01-21T04:05:12.450Z,21.40
2019-01-21T04:07:38.450Z,21.40
2019-01-21T04:10:04.498Z,21.39
2019-01-21T04:12:30.494Z,21.39
2019-01-21T04:14:56.494Z,21.39
2019-01-21T04:17:22.533Z,21.39
2019-01-21T04:19:48.527Z,21.39
2019-01-21T04:22:14.528Z,21.39
2019-01-21T04:24:40.566Z,21.39
2019-01-21T04:27:06.563Z,21.39
2019-01-21T04:29:32.559Z,21.39
2019-01-21T04:31:58.591Z,21.39
2019-01-21T04:34:24.594Z,21.39
2019-01-21T04:36:50.595Z,21.38
2019-01-21T04:39:16.631Z,21.37
2019-01-21T04:41:42.630Z,21.39
2019-01-21T04:44:08.629Z,21.37
2019-01-21T04:46:34.666Z,21.38
2019-01-21T04:49:00.658Z,21.38
2019-01-21T04:51:26.667Z,21.37
2019-01-21T04:53:52.704Z,21.37
2019-01-21T04:56:18.695Z,21.38
2019-01-21T04:58:44.693Z,21.37
2019-01-21T05:01:10.788Z,21.37
2019-01-21T05:03:36.789Z,21.37
2019-01-21T05:06:02.787Z,21.36
2019-01-21T05:08:28.825Z,21.37
2019-01-21T05:10:54.845Z,21.36
2019-01-21T05:13:20.839Z,21.35
2019-01-21T05:15:46.881Z,21.36
2019-01-21T05:18:12.867Z,21.35
2019-01-21T05:20:38.864Z,21.35
2019-01-21T05:23:04.905Z,21.35
2019-01-21T05:25:30.934Z,21.35
2019-01-21T05:27:56.940Z,21.35
2019-01-21T05:30:22.980Z,21.35
2019-01-21T05:32:49.012Z,21.35
2019-01-21T05:35:15.007Z,21.35
2019-01-21T05:37:41.057Z,21.35
2019-01-21T05:40:07.055Z,21.34
2019-01-21T05:42:33.046Z,21.34
2019-01-21T05:45:01.823Z,21.35
2019-01-21T05:47:28.565Z,21.34
2019-01-21T05:49:55.305Z,21.34
2019-01-21T05:52:22.156Z,21.34
2019-01-21T05:54:49.609Z,21.34
2019-01-21T05:57:16.777Z,21.34
2019-01-21T05:59:44.938Z,21.35
2019-01-21T06:02:11.889Z,21.35
2019-01-21T06:04:38.619Z,21.35
2019-01-21T06:07:08.643Z,21.35
2019-01-21T06:09:34.636Z,21.35
2019-01-21T06:12:00.634Z,21.36
2019-01-21T06:14:26.696Z,21.34
2019-01-21T06:16:52.698Z,21.38
2019-01-21T06:19:18.698Z,21.39
2019-01-21T06:21:44.742Z,21.38
2019-01-21T06:24:10.741Z,21.38
2019-01-21T06:26:36.749Z,21.38
2019-01-21T06:29:02.784Z,21.39
2019-01-21T06:31:28.782Z,21.38
2019-01-21T06:33:54.780Z,21.38
2019-01-21T06:36:20.819Z,21.38
2019-01-21T06:38:46.810Z,21.39
2019-01-21T06:41:12.811Z,21.38
2019-01-21T06:43:38.854Z,21.38
2019-01-21T06:46:04.860Z,21.39
2019-01-21T06:48:30.857Z,21.39
2019-01-21T06:50:56.945Z,21.38
2019-01-21T06:53:22.943Z,21.38
2019-01-21T06:55:48.940Z,21.38
2019-01-21T06:58:15.112Z,21.38
2019-01-21T07:00:41.140Z,21.38
2019-01-21T07:03:07.136Z,21.37
2019-01-21T07:05:33.222Z,21.37
2019-01-21T07:07:59.218Z,21.37
2019-01-21T07:10:25.216Z,21.37
2019-01-21T07:12:51.262Z,21.37
2019-01-21T07:15:17.266Z,21.37
2019-01-21T07:17:43.254Z,21.37
2019-01-21T07:20:09.296Z,21.36
2019-01-21T07:22:35.298Z,21.36
2019-01-21T07:25:01.324Z,21.37
2019-01-21T07:27:27.371Z,21.36
2019-01-21T07:29:53.365Z,21.38
2019-01-21T07:32:19.365Z,21.38
2019-01-21T07:34:45.416Z,21.39
2019-01-21T07:37:11.423Z,21.39
2019-01-21T07:39:37.435Z,21.39
2019-01-21T07:42:03.495Z,21.38
2019-01-21T07:44:29.486Z,21.37
2019-01-21T07:46:55.479Z,21.39
2019-01-21T07:49:21.514Z,21.39
2019-01-21T07:51:47.512Z,21.40
2019-01-21T07:54:13.509Z,21.40
2019-01-21T07:56:40.070Z,21.40
2019-01-21T07:59:08.665Z,21.40
2019-01-21T08:01:32.849Z,21.40
2019-01-21T08:03:58.897Z,21.40
2019-01-21T08:06:24.932Z,21.40
2019-01-21T08:08:50.945Z,21.40
2019-01-21T08:11:16.997Z,21.37
2019-01-21T08:13:43.038Z,21.40
2019-01-21T08:16:09.030Z,21.40
2019-01-21T08:18:35.095Z,21.41
2019-01-21T08:21:01.108Z,21.40
2019-01-21T08:23:30.369Z,21.41
2019-01-21T08:25:53.154Z,21.40
2019-01-21T08:28:19.154Z,21.40
2019-01-21T08:30:45.150Z,21.40
2019-01-21T08:33:11.306Z,21.40
2019-01-21T08:35:37.305Z,21.40
2019-01-21T08:38:03.307Z,21.40
2019-01-21T08:40:29.363Z,21.41
2019-01-21T08:42:55.393Z,21.41
2019-01-21T08:45:21.455Z,21.40
2019-01-21T08:47:47.510Z,21.39
2019-01-21T08:50:13.505Z,21.39
2019-01-21T08:52:39.504Z,21.38
2019-01-21T08:55:05.546Z,21.38
2019-01-21T08:57:31.542Z,21.37
2019-01-21T08:59:57.540Z,21.37
2019-01-21T09:02:23.814Z,21.37
2019-01-21T09:04:49.652Z,21.36
2019-01-21T09:07:15.628Z,21.35
2019-01-21T09:09:41.681Z,21.35
2019-01-21T09:12:07.688Z,21.35
2019-01-21T09:14:33.691Z,21.35
2019-01-21T09:16:59.939Z,21.36
2019-01-21T09:19:25.939Z,21.35
2019-01-21T09:21:52.101Z,21.36
2019-01-21T09:24:18.139Z,21.35
2019-01-21T09:26:44.136Z,21.35
2019-01-21T09:29:10.144Z,21.33
2019-01-21T09:31:36.203Z,21.33
2019-01-21T09:34:02.195Z,21.29
2019-01-21T09:36:28.220Z,21.30
2019-01-21T09:38:54.310Z,21.31
2019-01-21T09:41:20.318Z,21.32
2019-01-21T09:43:46.414Z,21.32
2019-01-21T09:46:12.467Z,21.31
2019-01-21T09:48:38.512Z,21.30
2019-01-21T09:51:04.518Z,21.29
2019-01-21T09:53:30.608Z,21.29
2019-01-21T09:55:57.009Z,21.31
2019-01-21T09:58:23.006Z,21.31
2019-01-21T10:00:49.057Z,21.33
2019-01-21T10:03:15.063Z,21.34
2019-01-21T10:05:41.072Z,21.33
2019-01-21T10:08:07.112Z,21.33
2019-01-21T10:10:33.109Z,21.33
2019-01-21T10:12:59.108Z,21.32
2019-01-21T10:15:25.161Z,21.32
2019-01-21T10:17:51.176Z,21.32
2019-01-21T10:20:17.163Z,21.32
2019-01-21T10:22:43.207Z,21.31
2019-01-21T10:25:09.203Z,21.31
2019-01-21T10:27:35.197Z,21.30
2019-01-21T10:30:01.233Z,21.30
2019-01-21T10:32:27.232Z,21.30
2019-01-21T10:34:53.256Z,21.29
2019-01-21T10:37:19.276Z,21.29
2019-01-21T10:39:45.276Z,21.28
2019-01-21T10:42:11.272Z,21.28
2019-01-21T10:44:37.309Z,21.28
2019-01-21T10:47:03.302Z,21.27
2019-01-21T10:49:29.295Z,21.27
2019-01-21T10:51:55.350Z,21.27
2019-01-21T10:54:21.366Z,21.26
2019-01-21T10:56:47.352Z,21.25
2019-01-21T10:59:13.403Z,21.26
2019-01-21T11:01:39.405Z,21.26
2019-01-21T11:04:05.427Z,21.26
2019-01-21T11:06:31.471Z,21.25
2019-01-21T11:08:57.473Z,21.23
2019-01-21T11:11:23.477Z,21.26
2019-01-21T11:13:49.518Z,21.25
2019-01-21T11:16:15.524Z,21.25
2019-01-21T11:18:41.521Z,21.25
2019-01-21T11:21:07.568Z,21.26
2019-01-21T11:23:33.576Z,21.26
2019-01-21T11:25:59.602Z,21.26
2019-01-21T11:28:25.664Z,21.25
2019-01-21T11:30:51.682Z,21.25
2019-01-21T11:33:17.679Z,21.24
2019-01-21T11:35:43.729Z,21.24
2019-01-21T11:38:09.751Z,21.24
2019-01-21T11:40:35.746Z,21.24
2019-01-21T11:43:01.795Z,21.23
2019-01-21T11:45:27.797Z,21.23
2019-01-21T11:47:53.802Z,21.24
2019-01-21T11:50:19.858Z,21.23
2019-01-21T11:52:45.857Z,21.23
2019-01-21T11:55:11.858Z,21.22
2019-01-21T11:57:37.901Z,21.23
2019-01-21T12:00:03.900Z,21.22
2019-01-21T12:02:29.899Z,21.22
2019-01-21T12:04:55.946Z,21.21
2019-01-21T12:07:21.946Z,21.22
2019-01-21T12:09:47.941Z,21.21
2019-01-21T12:12:13.980Z,21.22
2019-01-21T12:14:39.980Z,21.21
2019-01-21T12:17:05.974Z,21.21
2019-01-21T12:19:32.018Z,21.20
2019-01-21T12:21:58.011Z,21.20
2019-01-21T12:24:24.010Z,21.21
2019-01-21T12:26:50.054Z,21.20
2019-01-21T12:29:16.054Z,21.20
2019-01-21T12:31:42.055Z,21.20
2019-01-21T12:34:08.106Z,21.19
2019-01-21T12:36:34.098Z,21.19
2019-01-21T12:39:00.108Z,21.18
2019-01-21T12:41:26.147Z,21.19
2019-01-21T12:43:52.147Z,21.19
2019-01-21T12:46:18.145Z,21.19
2019-01-21T12:48:44.204Z,21.19
2019-01-21T12:51:10.300Z,21.19
2019-01-21T12:53:36.296Z,21.19
2019-01-21T12:56:02.339Z,21.19
2019-01-21T12:58:28.347Z,21.18
2019-01-21T13:00:54.349Z,21.18
2019-01-21T13:03:20.386Z,21.19
2019-01-21T13:05:46.409Z,21.18
2019-01-21T13:08:12.404Z,21.19
2019-01-21T13:10:38.445Z,21.19
2019-01-21T13:13:04.461Z,21.18
2019-01-21T13:15:30.460Z,21.19
2019-01-21T13:17:56.503Z,21.18
2019-01-21T13:20:22.512Z,21.18
2019-01-21T13:22:51.524Z,21.19
2019-01-21T13:25:14.551Z,21.18
2019-01-21T13:27:40.547Z,21.18
2019-01-21T13:30:06.554Z,21.18
2019-01-21T13:32:32.599Z,21.18
2019-01-21T13:34:58.599Z,21.17
2019-01-21T13:37:24.624Z,21.17
2019-01-21T13:39:50.672Z,21.17
2019-01-21T13:42:16.671Z,21.18
2019-01-21T13:44:42.669Z,21.17
2019-01-21T13:47:08.725Z,21.16
2019-01-21T13:49:34.745Z,21.16
2019-01-21T13:52:00.748Z,21.15
2019-01-21T13:54:26.787Z,21.15
2019-01-21T13:56:52.790Z,21.15
2019-01-21T13:59:18.796Z,21.15
2019-01-21T14:01:44.838Z,21.15
2019-01-21T14:04:10.884Z,21.14
2019-01-21T14:06:36.879Z,21.15
2019-01-21T14:09:02.936Z,21.15
2019-01-21T14:11:28.933Z,21.14
2019-01-21T14:13:54.935Z,21.15
2019-01-21T14:16:20.981Z,21.14
2019-01-21T14:18:46.982Z,21.13
2019-01-21T14:21:12.983Z,21.13
2019-01-21T14:23:39.021Z,21.13
2019-01-21T14:26:05.046Z,21.11
2019-01-21T14:28:31.018Z,21.12
2019-01-21T14:30:57.068Z,21.13
2019-01-21T14:33:23.059Z,21.13
2019-01-21T14:35:49.074Z,21.13
2019-01-21T14:38:15.124Z,21.13
2019-01-21T14:40:41.118Z,21.13
2019-01-21T14:43:08.566Z,21.13
2019-01-21T14:45:33.167Z,21.13
2019-01-21T14:47:59.194Z,21.13
2019-01-21T14:50:25.190Z,21.12
2019-01-21T14:52:51.221Z,21.11
2019-01-21T14:55:17.231Z,21.12
2019-01-21T14:57:43.240Z,21.12
2019-01-21T15:00:09.270Z,21.12
2019-01-21T15:02:35.253Z,21.11
2019-01-21T15:05:01.262Z,21.12
2019-01-21T15:07:27.338Z,21.11
2019-01-21T15:09:53.328Z,21.12
2019-01-21T15:12:19.405Z,21.12
2019-01-21T15:14:45.443Z,21.11
2019-01-21T15:17:11.437Z,21.11
2019-01-21T15:19:37.429Z,21.11
2019-01-21T15:22:03.421Z,21.11
2019-01-21T15:24:29.483Z,21.12
2019-01-21T15:26:55.426Z,21.11
2019-01-21T15:29:21.474Z,21.11
2019-01-21T15:31:47.495Z,21.11
2019-01-21T15:34:13.582Z,21.11
2019-01-21T15:36:39.566Z,21.11
2019-01-21T15:39:05.618Z,21.11
2019-01-21T15:41:31.499Z,21.11
2019-01-21T15:43:57.596Z,21.10
2019-01-21T15:46:23.531Z,21.09
2019-01-21T15:48:49.528Z,21.10
2019-01-21T15:51:16.734Z,21.09
2019-01-21T15:53:41.580Z,21.09
2019-01-21T15:56:10.717Z,21.05
2019-01-21T15:58:33.655Z,21.08
2019-01-21T16:00:59.647Z,21.10
2019-01-21T16:03:25.645Z,21.09
2019-01-21T16:05:51.710Z,21.09
2019-01-21T16:08:17.712Z,21.09
2019-01-21T16:10:43.733Z,21.09
2019-01-21T16:13:09.778Z,21.09
2019-01-21T16:15:35.775Z,21.09
2019-01-21T16:18:01.776Z,21.09
2019-01-21T16:20:27.930Z,21.09
2019-01-21T16:22:53.924Z,21.10
2019-01-21T16:25:19.926Z,21.10
2019-01-21T16:27:45.982Z,21.10
2019-01-21T16:30:11.969Z,21.11
2019-01-21T16:32:37.968Z,21.11
2019-01-21T16:35:04.032Z,21.12
2019-01-21T16:37:30.027Z,21.12
2019-01-21T16:39:56.017Z,21.13
2019-01-21T16:42:22.072Z,21.14
2019-01-21T16:44:48.074Z,21.13
2019-01-21T16:47:14.094Z,21.14
2019-01-21T16:49:40.132Z,21.15
2019-01-21T16:52:06.142Z,21.15
2019-01-21T16:54:32.144Z,21.15
2019-01-21T16:56:58.204Z,21.16
2019-01-21T16:59:24.277Z,21.16
2019-01-21T17:01:50.274Z,21.16
2019-01-21T17:04:16.339Z,21.18
2019-01-21T17:06:42.329Z,21.17
2019-01-21T17:09:08.326Z,21.18
2019-01-21T17:11:34.375Z,21.21
2019-01-21T17:14:00.372Z,21.20
2019-01-21T17:16:26.368Z,21.21
2019-01-21T17:18:52.729Z,21.24
2019-01-21T17:21:18.793Z,21.24
2019-01-21T17:23:44.817Z,21.23
2019-01-21T17:26:10.853Z,21.25
2019-01-21T17:28:36.850Z,21.25
2019-01-21T17:31:02.856Z,21.25
2019-01-21T17:33:28.936Z,21.25
2019-01-21T17:35:54.930Z,21.27
2019-01-21T17:38:20.934Z,21.26
2019-01-21T17:40:46.984Z,21.26
2019-01-21T17:43:12.984Z,21.28
2019-01-21T17:45:43.055Z,21.27
2019-01-21T17:48:09.192Z,21.29
2019-01-21T17:50:35.210Z,21.30
2019-01-21T17:53:10.522Z,21.30
2019-01-21T17:55:37.049Z,21.33
2019-01-21T17:58:03.610Z,21.33
2019-01-21T18:00:30.953Z,21.34
2019-01-21T18:02:56.582Z,21.35
2019-01-21T18:05:23.021Z,21.35
2019-01-21T18:07:49.865Z,21.37
2019-01-21T18:10:16.231Z,21.38
2019-01-21T18:12:42.971Z,21.39
2019-01-21T18:15:10.497Z,21.40
2019-01-21T18:17:37.009Z,21.42
2019-01-21T18:20:04.701Z,21.42
2019-01-21T18:22:31.746Z,21.43
2019-01-21T18:24:58.534Z,21.44
2019-01-21T18:27:25.333Z,21.44
2019-01-21T18:29:52.176Z,21.47
2019-01-21T18:32:18.379Z,21.47
2019-01-21T18:34:45.883Z,21.47
2019-01-21T18:37:14.480Z,21.46
2019-01-21T18:39:41.395Z,21.45
2019-01-21T18:42:07.580Z,21.45
2019-01-21T18:44:34.364Z,21.46
2019-01-21T18:47:01.355Z,21.49
2019-01-21T18:49:28.060Z,21.49
2019-01-21T18:51:54.894Z,21.47
2019-01-21T18:54:21.542Z,21.47
2019-01-21T18:56:48.282Z,21.48
2019-01-21T18:59:14.279Z,21.48
2019-01-21T19:01:42.077Z,21.48
2019-01-21T19:04:08.672Z,21.47
2019-01-21T19:06:36.177Z,21.50
2019-01-21T19:09:02.210Z,21.49
2019-01-21T19:11:28.677Z,21.51
2019-01-21T19:13:55.162Z,21.51
2019-01-21T19:16:21.532Z,21.52
2019-01-21T19:18:47.593Z,21.52
2019-01-21T19:21:13.789Z,21.52
2019-01-21T19:23:40.999Z,21.53
2019-01-21T19:26:07.052Z,21.51
2019-01-21T19:28:33.049Z,21.51
2019-01-21T19:31:00.850Z,21.52
2019-01-21T19:33:27.000Z,21.52
2019-01-21T19:35:53.682Z,21.50
2019-01-21T19:38:19.844Z,21.49
2019-01-21T19:40:46.400Z,21.50
2019-01-21T19:43:12.464Z,21.51
2019-01-21T19:45:38.513Z,21.51
2019-01-21T19:48:07.488Z,21.50
2019-01-21T19:50:34.744Z,21.50
2019-01-21T19:53:07.014Z,21.49
2019-01-21T19:55:33.029Z,21.49
2019-01-21T19:57:59.629Z,21.49
2019-01-21T20:00:26.213Z,21.50
2019-01-21T20:02:52.458Z,21.50
2019-01-21T20:05:18.917Z,21.50
2019-01-21T20:07:45.320Z,21.50
2019-01-21T20:10:13.704Z,21.50
2019-01-21T20:12:53.073Z,21.50
2019-01-21T20:15:15.299Z,21.50
2019-01-21T20:17:41.604Z,21.49
2019-01-21T20:20:08.036Z,21.50
2019-01-21T20:22:34.111Z,21.50
2019-01-21T20:25:00.595Z,21.49
2019-01-21T20:27:26.824Z,21.49
2019-01-21T20:29:53.014Z,21.50
2019-01-21T20:32:19.035Z,21.50
2019-01-21T20:34:48.074Z,21.51
2019-01-21T20:37:15.370Z,21.49
2019-01-21T20:39:41.484Z,21.50
2019-01-21T20:42:07.570Z,21.48
2019-01-21T20:44:34.370Z,21.49
2019-01-21T20:47:00.757Z,21.49
2019-01-21T20:49:26.997Z,21.49
2019-01-21T20:51:54.036Z,21.49
2019-01-21T20:54:20.565Z,21.48
2019-01-21T20:56:47.171Z,21.49
2019-01-21T20:59:13.223Z,21.49
2019-01-21T21:01:39.224Z,21.49
2019-01-21T21:04:05.216Z,21.51
2019-01-21T21:06:31.269Z,21.50
2019-01-21T21:08:57.268Z,21.50
2019-01-21T21:11:23.268Z,21.50
2019-01-21T21:13:49.308Z,21.50
2019-01-21T21:16:15.311Z,21.50
2019-01-21T21:18:41.312Z,21.50
2019-01-21T21:21:07.352Z,21.50
2019-01-21T21:23:33.350Z,21.50
2019-01-21T21:25:59.348Z,21.50
2019-01-21T21:28:25.433Z,21.50
2019-01-21T21:30:51.430Z,21.50
2019-01-21T21:33:17.431Z,21.50
2019-01-21T21:35:43.485Z,21.50
2019-01-21T21:38:12.311Z,21.51
2019-01-21T21:40:38.304Z,21.50
2019-01-21T21:43:04.348Z,21.50
2019-01-21T21:45:30.347Z,21.51
2019-01-21T21:48:00.800Z,21.52
2019-01-21T21:50:22.407Z,21.51
2019-01-21T21:52:48.409Z,21.51
2019-01-21T21:55:14.412Z,21.51
2019-01-21T21:57:40.457Z,21.51
2019-01-21T22:00:06.451Z,21.51
2019-01-21T22:02:32.442Z,21.51
2019-01-21T22:04:58.492Z,21.51
2019-01-21T22:07:24.486Z,21.52
2019-01-21T22:09:50.480Z,21.52
2019-01-21T22:12:16.527Z,21.51
2019-01-21T22:14:42.523Z,21.51
2019-01-21T22:17:08.520Z,21.51
2019-01-21T22:19:34.562Z,21.50
2019-01-21T22:22:00.554Z,21.51
2019-01-21T22:24:26.555Z,21.50
2019-01-21T22:26:52.594Z,21.49
2019-01-21T22:29:18.592Z,21.48
2019-01-21T22:31:44.594Z,21.49
2019-01-21T22:34:10.641Z,21.48
2019-01-21T22:36:36.739Z,21.49
2019-01-21T22:39:02.636Z,21.49
2019-01-21T22:41:28.694Z,21.48
2019-01-21T22:43:54.685Z,21.48
2019-01-21T22:46:20.685Z,21.47
2019-01-21T22:48:46.726Z,21.48
2019-01-21T22:51:12.723Z,21.47
2019-01-21T22:53:38.725Z,21.47
2019-01-21T22:56:04.778Z,21.46
2019-01-21T22:58:30.771Z,21.46
2019-01-21T23:00:56.767Z,21.47
2019-01-21T23:03:22.811Z,21.47
2019-01-21T23:05:48.806Z,21.46
2019-01-21T23:08:14.798Z,21.46
2019-01-21T23:10:40.860Z,21.45
2019-01-21T23:13:06.851Z,21.45
2019-01-21T23:15:32.854Z,21.46
2019-01-21T23:17:58.900Z,21.46
2019-01-21T23:20:24.909Z,21.45
2019-01-21T23:22:50.899Z,21.45
2019-01-21T23:25:16.946Z,21.45
2019-01-21T23:27:42.944Z,21.45
2019-01-21T23:30:08.940Z,21.44
2019-01-21T23:32:34.989Z,21.45
2019-01-21T23:35:00.981Z,21.45
2019-01-21T23:37:26.977Z,21.45
2019-01-21T23:39:53.014Z,21.45
2019-01-21T23:42:19.015Z,21.44
2019-01-21T23:44:45.004Z,21.45
2019-01-21T23:47:11.046Z,21.44
2019-01-21T23:49:37.044Z,21.44
2019-01-21T23:52:03.039Z,21.44
2019-01-21T23:54:29.091Z,21.44
2019-01-21T23:56:55.084Z,21.44
2019-01-21T23:59:21.078Z,21.43
